Money, Mississippi
Current Conditions -  °F | °C
As of 4:53 PM on Wednesday 26 Nov 2014 (Local Time) from KGWO Reporting Station
Clear Clear  
Wind Chill: 56°   Ceiling: Unl
Heat Index: 56°   Visibility: 10mi
Dew Point: 33°   Wind: 7mph
Humidity: 42%   Direction: 320°NW
Pressure: 30.09"   Gusts: NA
Location:  33.65°N, 90.21°W
Report Text: KGWO 262253Z AUTO 32006KT 10SM CLR 13/01 A3009 RMK AO2 SLP190 T01330006 TSNO
Loading
Personal Weather Stations






























Interactive Weather Map New forecast layout! Learn more

10-Day Weather Forecast

Advertisements
Track Severe Weather on mobile